Time;durP1;ratioP1;P1;durP2;ratioP2;P2;SDS_P1;SDS_P2;PMS_P1;PMS_P2;Temp;Humidity;BMP_temperature;BMP_pressure;BME280_temperature;BME280_humidity;BME280_pressure;Samples;Min_cycle;Max_cycle;Signal;HPM_P1;HPM_P2
2021/03/31 00:00:21;;;;;;;5.93;3.90;;;13.10;1.00;;;;;;4937036;29;20444;-77
2021/03/31 00:02:49;;;;;;;5.63;4.30;;;13.00;1.00;;;;;;4953716;29;20524;-77
2021/03/31 00:05:16;;;;;;;5.53;3.80;;;13.00;1.00;;;;;;4936634;29;20584;-77
2021/03/31 00:07:42;;;;;;;11.83;3.77;;;12.90;1.00;;;;;;4957345;28;20447;-76
2021/03/31 00:10:15;;;;;;;5.47;4.50;;;13.00;1.00;;;;;;4954683;28;20536;-76
2021/03/31 00:12:42;;;;;;;6.27;4.33;;;12.90;1.00;;;;;;4934582;29;20544;-76
2021/03/31 00:15:10;;;;;;;7.47;4.50;;;12.90;1.00;;;;;;4951210;29;20470;-76
2021/03/31 00:17:37;;;;;;;5.03;4.40;;;12.80;1.00;;;;;;4951674;29;20578;-76
2021/03/31 00:20:04;;;;;;;7.27;4.17;;;12.80;1.00;;;;;;4967256;28;20456;-76
2021/03/31 00:22:31;;;;;;;5.43;4.13;;;12.80;1.00;;;;;;4955417;28;20451;-77
2021/03/31 00:24:57;;;;;;;7.57;5.00;;;12.80;1.00;;;;;;4972621;28;20591;-76
2021/03/31 00:27:24;;;;;;;5.20;4.03;;;12.70;1.00;;;;;;4966515;28;20433;-77
2021/03/31 00:29:51;;;;;;;6.70;3.70;;;12.70;1.00;;;;;;4955975;28;20469;-76
2021/03/31 00:32:18;;;;;;;7.17;4.23;;;12.70;1.00;;;;;;4967389;28;20437;-77
2021/03/31 00:34:45;;;;;;;5.90;3.93;;;12.60;1.00;;;;;;4970221;28;20508;-77
2021/03/31 00:37:11;;;;;;;5.90;3.83;;;12.60;1.00;;;;;;4970700;28;20443;-76
2021/03/31 00:39:38;;;;;;;6.63;4.07;;;12.60;1.00;;;;;;4968533;28;20490;-76
2021/03/31 00:42:05;;;;;;;7.30;4.20;;;12.60;1.00;;;;;;4953257;29;20525;-77
2021/03/31 00:44:32;;;;;;;8.63;4.57;;;12.60;1.00;;;;;;4953343;29;20538;-76
2021/03/31 00:46:59;;;;;;;3.97;3.57;;;12.60;1.00;;;;;;4935874;29;20496;-76
2021/03/31 00:49:26;;;;;;;6.87;4.00;;;12.50;1.00;;;;;;4953811;28;20934;-77
2021/03/31 00:51:55;;;;;;;6.03;3.67;;;12.50;1.00;;;;;;4956865;28;20443;-77
2021/03/31 00:54:21;;;;;;;6.70;3.90;;;12.50;1.00;;;;;;4952404;28;20849;-76
2021/03/31 00:56:48;;;;;;;4.90;3.90;;;12.50;1.00;;;;;;4950827;29;20698;-77
2021/03/31 00:59:15;;;;;;;8.50;4.50;;;12.40;1.00;;;;;;4951249;29;20508;-76
2021/03/31 01:01:41;;;;;;;4.13;3.70;;;12.40;1.00;;;;;;4951248;29;20517;-77
2021/03/31 01:04:09;;;;;;;9.40;5.17;;;12.40;1.00;;;;;;4973730;28;20522;-78
2021/03/31 01:06:36;;;;;;;8.60;3.70;;;12.40;1.00;;;;;;4976173;28;20575;-77
2021/03/31 01:09:04;;;;;;;5.60;4.20;;;12.40;1.00;;;;;;4976345;28;20448;-77
2021/03/31 01:11:42;;;;;;;6.10;3.83;;;12.30;1.00;;;;;;4974659;28;20539;-77
2021/03/31 01:14:16;;;;;;;4.00;3.60;;;12.30;1.00;;;;;;4943710;28;21243;-77
2021/03/31 01:16:47;;;;;;;7.60;4.00;;;12.30;1.00;;;;;;4956071;28;20445;-78
2021/03/31 01:19:34;;;;;;;5.13;3.60;;;12.30;1.00;;;;;;4954200;29;20866;-77
2021/03/31 01:22:38;;;;;;;10.87;4.30;;;12.20;1.00;;;;;;4954317;29;20974;-77
2021/03/31 01:25:14;;;;;;;9.67;4.37;;;12.20;1.00;;;;;;4955143;28;20584;-76
2021/03/31 01:28:10;;;;;;;6.37;4.10;;;12.20;1.00;;;;;;4939572;29;20449;-77
2021/03/31 01:30:44;;;;;;;6.57;4.70;;;12.20;1.00;;;;;;4955664;29;20531;-76
2021/03/31 01:33:32;;;;;;;7.87;4.60;;;12.20;1.00;;;;;;4956222;29;20532;-76
2021/03/31 01:36:00;;;;;;;4.60;3.63;;;12.10;1.00;;;;;;4945440;28;20459;-78
2021/03/31 01:38:28;;;;;;;4.93;3.83;;;12.10;1.00;;;;;;4957167;28;20532;-76
2021/03/31 01:40:57;;;;;;;6.40;4.40;;;12.10;1.00;;;;;;4954001;29;20485;-76
2021/03/31 01:43:25;;;;;;;6.87;4.53;;;12.10;1.00;;;;;;4953719;29;20507;-76
2021/03/31 01:45:55;;;;;;;9.53;4.20;;;12.10;1.00;;;;;;4954122;29;20583;-76
2021/03/31 01:48:25;;;;;;;6.37;4.60;;;12.00;1.00;;;;;;4969797;28;20464;-76
2021/03/31 01:50:57;;;;;;;5.37;3.93;;;12.00;1.00;;;;;;4975553;28;20535;-76
2021/03/31 01:53:26;;;;;;;5.07;4.00;;;12.00;1.00;;;;;;4975358;28;20539;-76
2021/03/31 01:55:53;;;;;;;9.20;4.10;;;12.00;1.00;;;;;;4975751;28;20459;-76
2021/03/31 01:58:21;;;;;;;7.93;4.40;;;12.00;1.00;;;;;;4960732;28;20448;-76
2021/03/31 02:00:50;;;;;;;7.97;4.57;;;11.90;1.00;;;;;;4956744;28;20970;-76
2021/03/31 02:03:18;;;;;;;5.67;3.70;;;11.90;1.00;;;;;;4953581;29;20450;-76
2021/03/31 02:05:46;;;;;;;5.80;3.90;;;11.90;1.00;;;;;;4953514;29;20485;-77
2021/03/31 02:08:14;;;;;;;6.00;4.60;;;11.90;1.00;;;;;;4953656;29;20536;-77
2021/03/31 02:10:42;;;;;;;9.40;5.13;;;11.90;1.00;;;;;;4954915;28;20560;-77
2021/03/31 02:13:11;;;;;;;5.57;4.20;;;11.80;1.00;;;;;;4955957;29;20532;-76
2021/03/31 02:15:40;;;;;;;7.23;4.63;;;11.80;1.00;;;;;;4937649;29;20871;-76
2021/03/31 02:18:10;;;;;;;12.10;5.50;;;11.80;1.00;;;;;;4955788;29;20469;-77
2021/03/31 02:20:37;;;;;;;11.77;5.03;;;11.80;1.00;;;;;;4942624;28;20803;-77
2021/03/31 02:23:05;;;;;;;6.70;4.07;;;11.70;1.00;;;;;;4964108;28;20449;-77
2021/03/31 02:25:32;;;;;;;7.10;4.27;;;11.70;1.00;;;;;;4955370;28;20984;-76
2021/03/31 02:28:00;;;;;;;9.10;4.77;;;11.70;1.00;;;;;;4972302;28;20447;-78
2021/03/31 02:30:29;;;;;;;6.90;4.47;;;11.60;1.00;;;;;;4972162;28;20545;-77
2021/03/31 02:32:58;;;;;;;7.60;5.07;;;11.60;1.00;;;;;;4967489;28;20880;-77
2021/03/31 02:35:25;;;;;;;7.03;5.00;;;11.60;1.00;;;;;;4942215;28;20557;-77
2021/03/31 02:37:54;;;;;;;8.70;4.30;;;11.60;1.00;;;;;;4936336;29;20500;-77
2021/03/31 02:40:22;;;;;;;5.83;4.40;;;11.60;1.00;;;;;;4952986;29;20886;-77
2021/03/31 02:42:49;;;;;;;7.83;4.40;;;11.60;1.00;;;;;;4953117;29;20593;-76
2021/03/31 02:45:18;;;;;;;6.97;4.50;;;11.50;1.00;;;;;;4953271;28;20580;-77
2021/03/31 02:47:46;;;;;;;6.70;4.77;;;11.50;1.00;;;;;;4954810;29;20468;-76
2021/03/31 02:50:15;;;;;;;6.53;4.67;;;11.50;1.00;;;;;;4954879;29;20529;-77
2021/03/31 02:52:44;;;;;;;9.23;5.10;;;11.50;1.00;;;;;;4955220;29;20533;-76
2021/03/31 02:55:13;;;;;;;8.57;5.13;;;11.40;1.00;;;;;;4955983;28;20459;-77
2021/03/31 02:57:42;;;;;;;7.10;4.57;;;11.40;1.00;;;;;;4958893;28;20437;-77
2021/03/31 03:00:10;;;;;;;5.23;4.60;;;11.40;1.00;;;;;;4969558;28;20797;-77
2021/03/31 03:02:39;;;;;;;7.33;4.70;;;11.40;1.00;;;;;;4971466;28;20545;-76
2021/03/31 03:05:07;;;;;;;6.70;4.60;;;11.30;1.00;;;;;;4972026;28;20472;-77
2021/03/31 03:07:34;;;;;;;6.10;4.60;;;11.30;1.00;;;;;;4970295;28;20448;-77
2021/03/31 03:10:01;;;;;;;5.50;4.20;;;11.30;1.00;;;;;;4954403;29;20471;-77
2021/03/31 03:12:28;;;;;;;6.23;4.57;;;11.20;1.00;;;;;;4954841;29;20685;-77
2021/03/31 03:14:56;;;;;;;8.63;4.30;;;11.20;1.00;;;;;;4954524;29;20642;-77
2021/03/31 03:17:23;;;;;;;5.60;4.53;;;11.20;1.00;;;;;;4955060;28;20520;-78
2021/03/31 03:19:51;;;;;;;8.63;5.07;;;11.20;1.00;;;;;;4941828;28;20497;-76
2021/03/31 03:22:19;;;;;;;9.83;5.33;;;11.20;1.00;;;;;;4953417;28;20850;-77
2021/03/31 03:24:47;;;;;;;8.57;4.80;;;11.20;1.00;;;;;;4951580;29;20467;-77
2021/03/31 03:27:16;;;;;;;5.90;5.17;;;11.10;1.00;;;;;;4934786;29;20568;-77
2021/03/31 03:29:45;;;;;;;10.80;5.40;;;11.10;1.00;;;;;;4952230;28;20471;-78
2021/03/31 03:32:12;;;;;;;13.03;5.53;;;11.10;1.00;;;;;;4973282;28;20958;-77
2021/03/31 03:34:39;;;;;;;6.83;5.10;;;11.00;1.00;;;;;;4973539;28;20467;-76
2021/03/31 03:37:06;;;;;;;11.10;5.30;;;11.00;1.00;;;;;;4973576;28;20828;-77
2021/03/31 03:39:33;;;;;;;7.90;4.80;;;11.00;1.00;;;;;;4971092;28;20805;-77
2021/03/31 03:42:00;;;;;;;7.70;5.40;;;11.00;1.00;;;;;;4958025;28;20986;-77
2021/03/31 03:44:27;;;;;;;6.53;4.67;;;11.00;1.00;;;;;;4953503;28;20853;-77
2021/03/31 03:46:55;;;;;;;9.17;4.73;;;10.90;1.00;;;;;;4931028;29;20502;-77
2021/03/31 03:49:22;;;;;;;6.57;4.87;;;10.90;1.00;;;;;;4932906;29;20468;-77
2021/03/31 03:51:50;;;;;;;6.53;4.60;;;10.90;1.00;;;;;;4931465;29;20438;-77
2021/03/31 03:54:17;;;;;;;5.13;4.17;;;10.90;1.00;;;;;;4917467;29;20562;-78
2021/03/31 03:56:48;;;;;;;8.40;5.33;;;10.90;1.00;;;;;;4934611;29;20455;-76
2021/03/31 03:59:18;;;;;;;4.63;4.10;;;10.80;1.00;;;;;;4933351;29;20453;-76
2021/03/31 04:01:44;;;;;;;6.67;4.33;;;10.80;1.00;;;;;;4934989;29;20481;-76
2021/03/31 04:04:11;;;;;;;7.47;4.33;;;10.80;1.00;;;;;;4938590;29;20464;-77
2021/03/31 04:06:38;;;;;;;10.47;4.50;;;10.80;1.00;;;;;;4934320;29;21240;-77
2021/03/31 04:09:04;;;;;;;6.90;5.40;;;10.80;1.00;;;;;;4932544;29;20539;-77
2021/03/31 04:11:33;;;;;;;8.63;5.10;;;10.70;1.00;;;;;;4932050;29;20517;-77
2021/03/31 04:14:02;;;;;;;10.33;5.10;;;10.70;1.00;;;;;;4931149;29;20794;-76
2021/03/31 04:16:30;;;;;;;5.97;4.00;;;10.70;1.00;;;;;;4950011;29;20911;-77
2021/03/31 04:19:01;;;;;;;6.30;5.00;;;10.70;1.00;;;;;;4952422;29;20833;-77
2021/03/31 04:21:30;;;;;;;6.60;4.07;;;10.70;1.00;;;;;;4953461;29;20446;-77
2021/03/31 04:23:58;;;;;;;7.00;4.83;;;10.60;1.00;;;;;;4952159;29;20560;-76
2021/03/31 04:26:26;;;;;;;6.30;4.70;;;10.60;1.00;;;;;;4938018;29;20521;-76
2021/03/31 04:28:54;;;;;;;6.90;5.27;;;10.60;1.00;;;;;;4943941;29;20528;-77
2021/03/31 04:31:23;;;;;;;7.57;5.43;;;10.60;1.00;;;;;;4951607;29;20466;-77
2021/03/31 04:33:51;;;;;;;6.13;4.50;;;10.60;1.00;;;;;;4952959;29;20548;-77
2021/03/31 04:36:18;;;;;;;6.70;4.90;;;10.50;1.00;;;;;;4953013;29;21074;-78
2021/03/31 04:38:45;;;;;;;13.10;6.03;;;10.50;1.00;;;;;;4941761;29;20458;-77
2021/03/31 04:41:12;;;;;;;9.13;5.40;;;10.50;1.00;;;;;;4945033;29;20433;-77
2021/03/31 04:43:39;;;;;;;8.73;5.43;;;10.50;1.00;;;;;;4940935;29;20464;-76
2021/03/31 04:46:08;;;;;;;7.37;5.90;;;10.40;1.00;;;;;;4942265;29;20894;-77
2021/03/31 04:48:35;;;;;;;8.30;5.13;;;10.40;1.00;;;;;;4940479;29;20455;-77
2021/03/31 04:51:02;;;;;;;8.63;5.27;;;10.40;1.00;;;;;;4940295;29;20441;-77
2021/03/31 04:53:29;;;;;;;7.40;5.23;;;10.40;1.00;;;;;;4959227;28;20895;-78
2021/03/31 04:55:56;;;;;;;10.57;5.73;;;10.30;1.00;;;;;;4942564;29;20441;-77
2021/03/31 04:58:24;;;;;;;8.63;4.70;;;10.30;1.00;;;;;;4942818;29;20447;-77
2021/03/31 05:00:51;;;;;;;8.20;5.13;;;10.30;1.00;;;;;;4959797;28;20487;-77
2021/03/31 05:03:19;;;;;;;7.10;4.73;;;10.30;1.00;;;;;;4963743;28;20850;-77
2021/03/31 05:05:46;;;;;;;8.20;5.67;;;10.30;1.00;;;;;;4970140;28;20486;-78
2021/03/31 05:08:13;;;;;;;7.73;5.40;;;10.30;1.00;;;;;;4959655;28;20455;-78
2021/03/31 05:10:39;;;;;;;10.27;5.40;;;10.30;1.00;;;;;;4976440;28;20483;-77
2021/03/31 05:13:06;;;;;;;9.40;5.83;;;10.20;1.00;;;;;;4976725;28;20531;-78
2021/03/31 05:15:33;;;;;;;6.80;4.90;;;10.20;1.00;;;;;;4978094;28;20551;-76
2021/03/31 05:18:00;;;;;;;7.03;5.40;;;10.20;1.00;;;;;;4978510;28;20528;-78
2021/03/31 05:20:27;;;;;;;8.00;4.93;;;10.20;1.00;;;;;;4961483;28;20980;-79
2021/03/31 05:22:54;;;;;;;10.87;5.60;;;10.20;1.00;;;;;;4978825;28;20451;-77
2021/03/31 05:25:21;;;;;;;7.00;4.93;;;10.20;1.00;;;;;;4964432;28;20457;-76
2021/03/31 05:27:48;;;;;;;8.70;5.23;;;10.20;1.00;;;;;;4960131;28;20798;-76
2021/03/31 05:30:16;;;;;;;9.03;5.17;;;10.20;1.00;;;;;;4939942;29;20536;-78
2021/03/31 05:32:43;;;;;;;12.33;6.20;;;10.20;1.00;;;;;;4956843;28;20540;-77
2021/03/31 05:35:11;;;;;;;7.50;4.63;;;10.20;1.00;;;;;;4957296;29;20504;-77
2021/03/31 05:37:38;;;;;;;11.33;6.17;;;10.20;1.00;;;;;;4958362;28;20549;-78
2021/03/31 05:40:06;;;;;;;11.77;6.00;;;10.20;1.00;;;;;;4959086;29;20450;-78
2021/03/31 05:42:34;;;;;;;7.33;5.43;;;10.20;1.00;;;;;;4942205;29;20953;-76
2021/03/31 05:45:01;;;;;;;8.10;5.90;;;10.20;1.00;;;;;;4959055;29;20560;-77
2021/03/31 05:47:29;;;;;;;12.43;4.97;;;10.20;1.00;;;;;;4941560;28;21052;-76
2021/03/31 05:49:56;;;;;;;7.87;5.43;;;10.20;1.00;;;;;;4940085;28;20473;-77
2021/03/31 05:52:23;;;;;;;8.90;5.60;;;10.30;1.00;;;;;;4934718;29;21009;-78
2021/03/31 05:54:51;;;;;;;10.30;5.20;;;10.30;1.00;;;;;;4934287;29;20549;-79
2021/03/31 05:57:18;;;;;;;9.27;5.10;;;10.40;1.00;;;;;;4934664;29;20446;-77
2021/03/31 05:59:45;;;;;;;12.63;6.20;;;10.40;1.00;;;;;;4946280;29;20451;-78
2021/03/31 06:02:16;;;;;;;12.10;6.00;;;10.50;1.00;;;;;;4955992;29;20525;-77
2021/03/31 06:04:44;;;;;;;10.00;6.00;;;10.50;1.00;;;;;;4955670;29;20496;-78
2021/03/31 06:07:11;;;;;;;9.80;5.33;;;10.60;1.00;;;;;;4955502;29;20489;-78
2021/03/31 06:10:06;;;;;;;9.60;5.63;;;10.60;1.00;;;;;;4943616;29;20537;-77
2021/03/31 06:12:34;;;;;;;7.40;5.00;;;10.70;1.00;;;;;;4940140;29;20443;-77
2021/03/31 06:15:10;;;;;;;6.80;5.60;;;10.80;1.00;;;;;;4934313;29;21031;-77
2021/03/31 06:17:46;;;;;;;8.73;5.43;;;10.90;1.00;;;;;;4934190;29;20435;-78
2021/03/31 06:20:13;;;;;;;8.57;5.27;;;11.00;1.00;;;;;;4934272;29;20469;-79
2021/03/31 06:22:51;;;;;;;8.53;5.40;;;11.10;1.00;;;;;;4935508;29;20928;-78
2021/03/31 06:25:23;;;;;;;9.10;5.50;;;11.10;1.00;;;;;;4936198;29;20466;-76
2021/03/31 06:27:54;;;;;;;6.43;5.03;;;11.20;1.00;;;;;;4934906;29;20500;-77
2021/03/31 06:30:22;;;;;;;8.60;5.60;;;11.30;1.00;;;;;;4937086;29;20439;-77
2021/03/31 06:32:49;;;;;;;10.70;5.90;;;11.50;1.00;;;;;;4937613;29;20923;-77
2021/03/31 06:35:19;;;;;;;7.43;5.60;;;11.60;1.00;;;;;;4932506;29;20956;-78
2021/03/31 06:37:45;;;;;;;10.00;5.43;;;11.70;1.00;;;;;;4932664;29;20451;-77
2021/03/31 06:40:32;;;;;;;11.50;5.90;;;11.80;1.00;;;;;;4934430;29;20450;-78
2021/03/31 06:43:13;;;;;;;9.00;5.60;;;11.90;1.00;;;;;;4943664;29;20469;-78
2021/03/31 06:45:48;;;;;;;8.67;5.37;;;12.00;1.00;;;;;;4954782;28;20539;-77
2021/03/31 06:48:15;;;;;;;9.57;5.77;;;12.10;1.00;;;;;;4974365;28;20506;-76
2021/03/31 06:50:42;;;;;;;8.53;5.70;;;12.30;1.00;;;;;;4974363;28;20455;-76
2021/03/31 06:53:09;;;;;;;9.23;5.80;;;12.40;1.00;;;;;;4962135;28;20888;-77
2021/03/31 06:55:36;;;;;;;8.60;5.70;;;12.50;1.00;;;;;;4962245;28;20885;-75
2021/03/31 06:58:05;;;;;;;11.40;6.30;;;12.60;1.00;;;;;;4954580;28;20535;-76
2021/03/31 07:00:33;;;;;;;10.80;6.83;;;12.80;1.00;;;;;;4971768;28;20544;-75
2021/03/31 07:03:03;;;;;;;8.30;6.40;;;12.90;1.00;;;;;;4971937;28;20903;-76
2021/03/31 07:05:30;;;;;;;10.93;6.13;;;13.00;1.00;;;;;;4961735;28;20485;-76
2021/03/31 07:08:08;;;;;;;6.60;5.40;;;13.10;1.00;;;;;;4937995;29;20473;-76
2021/03/31 07:10:45;;;;;;;7.00;5.80;;;13.30;1.00;;;;;;4937738;29;20441;-77
2021/03/31 07:13:25;;;;;;;9.33;5.97;;;;;;;;;;4937835;29;20445;-77
2021/03/31 07:15:53;;;;;;;11.17;6.60;;;;;;;;;;4958209;28;20496;-79
2021/03/31 07:18:21;;;;;;;10.33;6.70;;;;;;;;;;4955055;28;20454;-79
2021/03/31 07:20:48;;;;;;;10.93;6.00;;;;;;;;;;4951794;29;20955;-78
2021/03/31 07:23:16;;;;;;;9.10;6.40;;;;;;;;;;4951687;29;20942;-78
2021/03/31 07:25:44;;;;;;;7.97;6.00;;;;;;;;;;4952041;29;20580;-79
2021/03/31 07:28:13;;;;;;;11.63;6.90;;;;;;;;;;4964130;28;21207;-78
2021/03/31 07:30:40;;;;;;;11.47;5.90;;;;;;;;;;4957917;28;20438;-78
2021/03/31 07:33:12;;;;;;;9.17;6.40;;;;;;;;;;4952657;28;20540;-78
2021/03/31 07:35:39;;;;;;;6.97;6.03;;;;;;;;;;4935242;29;20532;-78
2021/03/31 07:38:06;;;;;;;8.43;5.97;;;;;;;;;;4951776;29;20540;-77
2021/03/31 07:40:34;;;;;;;9.87;6.63;;;;;;;;;;4951957;28;20460;-77
2021/03/31 07:43:06;;;;;;;7.60;5.47;;;;;;;;;;4938123;28;20441;-78
2021/03/31 07:45:37;;;;;;;7.23;5.70;;;;;;;;;;4957581;28;20955;-79
2021/03/31 07:48:04;;;;;;;11.10;6.20;;;;;;;;;;4969977;28;20495;-78
2021/03/31 07:50:32;;;;;;;10.83;7.10;;;;;;;;;;4953856;28;20438;-78
2021/03/31 07:53:00;;;;;;;8.70;6.33;;;;;;;;;;4970924;28;20419;-78
2021/03/31 07:55:30;;;;;;;13.10;7.03;;;;;;;;;;4950448;29;20489;-79
2021/03/31 07:58:12;;;;;;;8.20;6.67;;;;;;;;;;4953691;29;20537;-78
2021/03/31 08:00:54;;;;;;;9.63;6.60;;;;;;;;;;4938542;29;20465;-78
2021/03/31 08:03:23;;;;;;;11.43;7.13;;;;;;;;;;4938963;29;20977;-77
2021/03/31 08:06:04;;;;;;;10.07;6.40;;;;;;;;;;4956248;28;20953;-78
2021/03/31 08:08:31;;;;;;;8.57;5.97;;;;;;;;;;4946207;28;20415;-77
2021/03/31 08:10:59;;;;;;;17.73;6.93;;;;;;;;;;4970784;28;20815;-77
2021/03/31 08:13:28;;;;;;;12.83;6.87;;;;;;;;;;4969986;28;20499;-77
2021/03/31 08:15:55;;;;;;;9.33;6.63;;;;;;;;;;4953740;28;20448;-77
2021/03/31 08:18:23;;;;;;;8.10;6.90;;;;;;;;;;4971835;28;20510;-78
2021/03/31 08:20:50;;;;;;;10.90;7.60;;;;;;;;;;4972737;28;20530;-77
2021/03/31 08:23:43;;;;;;;10.60;7.00;;;;;;;;;;4972739;28;20870;-77
2021/03/31 08:26:25;;;;;;;10.80;6.97;;;;;;;;;;4972686;28;20463;-77
2021/03/31 08:28:52;;;;;;;16.93;7.37;;;;;;;;;;4956462;28;20490;-77
2021/03/31 08:31:19;;;;;;;8.87;6.77;;;;;;;;;;4964129;28;20443;-76
2021/03/31 08:33:47;;;;;;;9.47;6.47;;;;;;;;;;4969622;28;20472;-78
2021/03/31 08:36:17;;;;;;;11.37;7.90;;;;;;;;;;4969469;28;20996;-77
2021/03/31 08:38:49;;;;;;;9.73;7.10;;;;;;;;;;4952894;28;20419;-78
2021/03/31 08:41:16;;;;;;;10.83;7.07;;;;;;;;;;4954162;28;20817;-77
2021/03/31 08:43:45;;;;;;;14.63;7.97;;;;;;;;;;4948368;28;20556;-78
2021/03/31 08:46:12;;;;;;;14.63;8.00;;;;;;;;;;4964473;28;20484;-78
2021/03/31 08:48:39;;;;;;;9.30;7.00;;;;;;;;;;4970157;28;20455;-78
2021/03/31 08:51:08;;;;;;;11.93;7.30;;;;;;;;;;4970409;28;20527;-77
2021/03/31 08:53:35;;;;;;;12.13;7.93;;;17.80;1.00;;;;;;4952908;28;20543;-75
2021/03/31 08:56:03;;;;;;;16.17;8.23;;;17.80;18.40;;;;;;4954995;28;20521;-75
2021/03/31 08:58:30;;;;;;;12.13;7.63;;;17.80;95.00;;;;;;4920250;29;20441;-76
2021/03/31 09:00:59;;;;;;;9.33;7.03;;;17.90;99.90;;;;;;4952881;29;20485;-77
2021/03/31 09:03:30;;;;;;;15.17;8.00;;;17.90;99.90;;;;;;4936516;28;20931;-76
2021/03/31 09:05:58;;;;;;;10.50;7.60;;;18.00;99.90;;;;;;4940467;28;20525;-77
2021/03/31 09:08:27;;;;;;;10.60;8.20;;;18.00;99.90;;;;;;4965822;28;20539;-77
2021/03/31 09:10:57;;;;;;;11.93;8.23;;;18.00;99.90;;;;;;4970337;28;20450;-76
2021/03/31 09:13:25;;;;;;;11.53;8.40;;;18.10;99.90;;;;;;4952697;28;20448;-76
2021/03/31 09:15:54;;;;;;;13.83;8.77;;;18.10;99.90;;;;;;4953217;28;20532;-76
2021/03/31 09:18:21;;;;;;;12.80;8.70;;;18.10;99.90;;;;;;4972150;28;20449;-76
2021/03/31 09:20:48;;;;;;;15.63;8.30;;;18.20;99.90;;;;;;4972338;28;20527;-77
2021/03/31 09:23:25;;;;;;;13.00;8.03;;;18.20;99.90;;;;;;4971943;28;20476;-80
2021/03/31 09:25:56;;;;;;;14.23;7.60;;;18.30;99.90;;;;;;4953193;28;20583;-78
2021/03/31 09:28:22;;;;;;;13.23;8.53;;;18.30;99.90;;;;;;4960336;28;21258;-80
2021/03/31 09:30:51;;;;;;;10.53;8.40;;;18.30;99.90;;;;;;4954775;28;20981;-79
2021/03/31 09:33:26;;;;;;;11.60;8.63;;;18.40;99.90;;;;;;4954192;29;20453;-77
2021/03/31 09:35:53;;;;;;;12.30;8.13;;;18.50;99.90;;;;;;4954519;29;20458;-78
2021/03/31 09:38:27;;;;;;;14.33;8.20;;;18.50;99.90;;;;;;4937256;28;20449;-77
2021/03/31 09:41:01;;;;;;;13.27;7.87;;;18.60;99.90;;;;;;4939109;29;20437;-79
2021/03/31 09:43:30;;;;;;;9.50;7.10;;;18.60;99.90;;;;;;4939317;29;21018;-81
2021/03/31 09:45:57;;;;;;;15.43;8.93;;;18.70;99.90;;;;;;4939283;29;20508;-78
2021/03/31 09:48:24;;;;;;;11.90;8.57;;;18.70;99.90;;;;;;4958059;28;20492;-78
2021/03/31 09:50:51;;;;;;;14.53;8.53;;;18.70;99.90;;;;;;4934822;28;20468;-79
2021/03/31 09:53:21;;;;;;;15.00;9.47;;;18.80;99.90;;;;;;4973010;28;20511;-79
2021/03/31 09:55:48;;;;;;;12.57;8.13;;;18.90;99.90;;;;;;4973159;28;20445;-79
2021/03/31 09:58:20;;;;;;;13.23;8.00;;;18.90;99.90;;;;;;4973650;28;20475;-78
2021/03/31 10:00:47;;;;;;;14.97;9.37;;;19.00;99.90;;;;;;4974257;28;20535;-79
2021/03/31 10:03:14;;;;;;;15.30;8.90;;;19.10;99.90;;;;;;4975551;28;20527;-77
2021/03/31 10:05:41;;;;;;;14.30;8.07;;;19.00;99.90;;;;;;4975661;28;20465;-78
2021/03/31 10:08:10;;;;;;;11.67;8.47;;;19.10;99.90;;;;;;4975224;28;20805;-78
2021/03/31 10:10:41;;;;;;;16.73;8.33;;;19.20;1.00;;;;;;4966881;28;20572;-79
2021/03/31 10:13:08;;;;;;;13.37;9.33;;;19.20;1.00;;;;;;4944516;28;20516;-79
2021/03/31 10:15:36;;;;;;;13.00;8.90;;;19.30;99.90;;;;;;4972203;28;20591;-80
2021/03/31 10:18:03;;;;;;;12.00;8.87;;;19.30;99.90;;;;;;4956009;28;20468;-80
2021/03/31 10:20:32;;;;;;;12.83;9.10;;;19.40;99.90;;;;;;4972972;28;20552;-78
2021/03/31 10:22:58;;;;;;;11.47;8.20;;;19.40;99.90;;;;;;4953760;28;20547;-78
2021/03/31 10:25:27;;;;;;;17.90;8.90;;;19.40;99.90;;;;;;4942586;28;20448;-78
2021/03/31 10:27:54;;;;;;;11.83;8.57;;;19.50;99.90;;;;;;4938694;29;20485;-80
2021/03/31 10:30:25;;;;;;;11.27;7.83;;;19.50;99.90;;;;;;4936755;29;20497;-78
2021/03/31 10:32:53;;;;;;;8.53;7.27;;;19.60;99.90;;;;;;4936402;29;20434;-80
2021/03/31 10:35:45;;;;;;;10.60;7.40;;;19.60;99.90;;;;;;4936541;28;20492;-80
2021/03/31 10:38:20;;;;;;;9.67;7.13;;;19.70;99.90;;;;;;4941772;29;20803;-80
2021/03/31 10:41:07;;;;;;;11.53;7.30;;;19.70;99.90;;;;;;4955019;29;20441;-79
2021/03/31 10:49:13;;;;;;;12.07;7.63;;;19.80;1.00;;;;;;4945318;28;20430;-77
2021/03/31 10:51:49;;;;;;;9.37;7.00;;;19.90;1.00;;;;;;4972828;28;20475;-78
2021/03/31 10:54:17;;;;;;;8.67;5.90;;;19.90;99.90;;;;;;4973159;28;20460;-78
2021/03/31 10:56:51;;;;;;;9.23;6.87;;;20.00;99.90;;;;;;4972599;28;20440;-77
2021/03/31 10:59:17;;;;;;;11.70;6.90;;;20.00;99.90;;;;;;4972902;28;20510;-78
2021/03/31 11:01:44;;;;;;;8.87;5.60;;;20.00;99.90;;;;;;4974031;28;20475;-78
2021/03/31 11:04:12;;;;;;;8.10;6.07;;;20.20;99.90;;;;;;4974030;28;20481;-78
2021/03/31 11:06:39;;;;;;;8.00;6.13;;;20.20;1.00;;;;;;4941080;28;20488;-77
2021/03/31 11:09:06;;;;;;;11.50;7.27;;;20.20;1.00;;;;;;4963781;28;20564;-78
2021/03/31 11:11:32;;;;;;;13.60;6.10;;;20.20;1.00;;;;;;4957830;28;20465;-78
2021/03/31 11:13:59;;;;;;;6.50;5.70;;;20.30;1.00;;;;;;4951781;29;20474;-79
2021/03/31 11:16:26;;;;;;;7.97;5.40;;;20.40;1.00;;;;;;4952241;29;20540;-78
2021/03/31 11:19:00;;;;;;;8.00;5.47;;;20.40;1.00;;;;;;4952471;29;20446;-78
2021/03/31 11:26:50;;;;;;;8.33;4.87;;;20.60;1.00;;;;;;4953058;29;20513;-79
2021/03/31 11:29:16;;;;;;;6.77;5.33;;;20.60;1.00;;;;;;4954333;29;20528;-78
2021/03/31 11:31:43;;;;;;;8.00;5.07;;;20.60;1.00;;;;;;4957687;28;20881;-79
2021/03/31 11:34:10;;;;;;;10.77;5.67;;;20.60;1.00;;;;;;4955361;28;20852;-81
2021/03/31 11:36:37;;;;;;;8.93;5.33;;;20.70;99.90;;;;;;4952219;29;20871;-78
2021/03/31 11:39:04;;;;;;;8.03;4.73;;;20.70;99.90;;;;;;4951538;29;21041;-80
2021/03/31 11:41:31;;;;;;;5.23;3.80;;;20.80;99.90;;;;;;4951837;29;20927;-80
2021/03/31 11:43:58;;;;;;;6.33;3.87;;;20.80;99.90;;;;;;4965366;28;21044;-80
2021/03/31 11:46:24;;;;;;;8.40;4.63;;;20.80;99.90;;;;;;4972944;28;20587;-81
2021/03/31 11:48:51;;;;;;;5.40;3.43;;;20.80;99.90;;;;;;4972760;28;20524;-81
2021/03/31 11:51:18;;;;;;;6.60;4.03;;;20.80;99.90;;;;;;4973019;28;20479;-80
2021/03/31 11:53:46;;;;;;;6.50;4.07;;;20.80;99.90;;;;;;4960592;28;21747;-82
2021/03/31 11:56:12;;;;;;;6.70;4.77;;;20.90;99.90;;;;;;4955046;28;20433;-82
2021/03/31 11:58:40;;;;;;;6.57;4.63;;;20.90;99.90;;;;;;4951823;29;20556;-83
2021/03/31 12:01:07;;;;;;;5.03;4.53;;;20.90;99.90;;;;;;4950950;29;20430;-80
2021/03/31 12:03:34;;;;;;;7.30;4.23;;;20.90;99.90;;;;;;4949437;29;20453;-80
2021/03/31 12:06:00;;;;;;;7.03;4.10;;;20.90;99.90;;;;;;4950353;28;20540;-79
2021/03/31 12:08:27;;;;;;;6.10;3.50;;;20.90;99.90;;;;;;4954248;28;20672;-78
2021/03/31 12:10:55;;;;;;;5.40;3.60;;;21.00;99.90;;;;;;4931851;29;20545;-81
2021/03/31 12:13:22;;;;;;;6.57;3.83;;;21.00;99.90;;;;;;4948647;29;21046;-84
2021/03/31 12:15:48;;;;;;;6.00;3.63;;;21.00;99.90;;;;;;4948367;29;20473;-81
2021/03/31 12:18:15;;;;;;;5.40;3.33;;;21.00;99.90;;;;;;4948737;28;20549;-80
2021/03/31 12:20:41;;;;;;;5.00;3.73;;;21.00;99.90;;;;;;4950713;29;20544;-78
2021/03/31 12:23:08;;;;;;;7.57;3.40;;;21.10;99.90;;;;;;4949992;29;20528;-78
2021/03/31 12:25:35;;;;;;;4.83;3.07;;;21.00;99.90;;;;;;4949682;29;20528;-82
2021/03/31 12:28:02;;;;;;;4.97;3.50;;;21.10;99.90;;;;;;4950230;28;20571;-78
2021/03/31 12:30:29;;;;;;;4.93;3.00;;;21.10;99.90;;;;;;4953969;28;20448;-81
2021/03/31 12:32:56;;;;;;;4.77;3.43;;;21.10;99.90;;;;;;4949263;28;20464;-79
2021/03/31 12:35:23;;;;;;;4.30;3.10;;;21.10;99.90;;;;;;4947845;29;20473;-79
2021/03/31 12:37:50;;;;;;;4.03;3.13;;;21.20;1.00;;;;;;4947734;29;20471;-77
2021/03/31 12:40:18;;;;;;;3.80;3.40;;;21.10;99.90;;;;;;4947735;29;20445;-78
2021/03/31 12:42:44;;;;;;;4.30;2.77;;;21.20;1.00;;;;;;4968118;28;20485;-81
2021/03/31 12:45:13;;;;;;;7.77;3.70;;;21.20;99.90;;;;;;4968987;28;20557;-77
2021/03/31 12:47:40;;;;;;;5.83;3.20;;;21.20;99.90;;;;;;4970665;28;20499;-77
2021/03/31 12:50:09;;;;;;;5.33;3.43;;;21.20;99.90;;;;;;4969373;28;20838;-82
2021/03/31 12:52:41;;;;;;;6.57;3.83;;;21.30;99.90;;;;;;4957631;28;20600;-77
2021/03/31 12:55:11;;;;;;;7.80;3.90;;;21.30;1.00;;;;;;4951188;28;20497;-78
2021/03/31 12:57:39;;;;;;;6.10;3.27;;;21.30;99.90;;;;;;4933916;29;20446;-78
2021/03/31 13:00:07;;;;;;;3.70;2.67;;;21.30;99.90;;;;;;4953351;28;20456;-76
2021/03/31 13:02:35;;;;;;;4.43;3.13;;;21.30;99.90;;;;;;4954826;28;20515;-78
2021/03/31 13:05:02;;;;;;;5.43;3.47;;;21.30;99.90;;;;;;4956859;29;20501;-79
2021/03/31 13:07:30;;;;;;;5.70;3.57;;;21.30;99.90;;;;;;4957071;29;20493;-78
2021/03/31 13:09:57;;;;;;;4.03;2.70;;;21.30;99.90;;;;;;4956951;29;20804;-79
2021/03/31 13:12:33;;;;;;;4.87;3.27;;;21.30;99.90;;;;;;4957994;28;20449;-80
2021/03/31 13:15:18;;;;;;;3.50;2.80;;;21.30;99.90;;;;;;4960941;28;20542;-78
2021/03/31 13:17:55;;;;;;;3.40;2.83;;;21.30;99.90;;;;;;4973614;28;20448;-78
2021/03/31 13:23:06;;;;;;;4.23;2.80;;;21.30;99.90;;;;;;4973210;28;20960;-77
2021/03/31 13:25:36;;;;;;;4.57;2.80;;;21.30;99.90;;;;;;4974588;28;20495;-77